createdAt,value
2023-08-06T00:00:30.833Z,93.00
2023-08-06T00:02:57.659Z,93.23
2023-08-06T00:05:24.552Z,93.44
2023-08-06T00:07:51.871Z,93.63
2023-08-06T00:10:18.708Z,93.97
2023-08-06T00:12:46.504Z,94.04
2023-08-06T00:15:13.501Z,94.10
2023-08-06T00:17:40.157Z,94.16
2023-08-06T00:20:07.931Z,94.19
2023-08-06T00:22:35.938Z,94.22
2023-08-06T00:25:03.681Z,94.37
2023-08-06T00:27:30.473Z,94.24
2023-08-06T00:29:57.140Z,94.30
2023-08-06T00:32:23.860Z,94.49
2023-08-06T00:34:50.543Z,94.61
2023-08-06T00:37:17.961Z,94.69
2023-08-06T00:39:45.235Z,94.83
2023-08-06T00:42:12.989Z,94.84
2023-08-06T00:44:40.286Z,94.87
2023-08-06T00:47:08.663Z,95.15
2023-08-06T00:49:37.024Z,95.10
2023-08-06T00:52:05.906Z,95.32
2023-08-06T00:54:33.776Z,95.43
2023-08-06T00:57:02.307Z,95.47
2023-08-06T00:59:31.157Z,95.64
2023-08-06T01:01:57.991Z,95.79
2023-08-06T01:04:25.200Z,95.88
2023-08-06T01:07:31.081Z,95.95
2023-08-06T01:10:06.670Z,96.11
2023-08-06T01:12:46.445Z,96.09
2023-08-06T01:15:20.037Z,96.07
2023-08-06T01:17:46.950Z,96.22
2023-08-06T01:20:13.537Z,96.18
2023-08-06T01:22:41.354Z,96.27
2023-08-06T01:25:08.885Z,96.41
2023-08-06T01:27:47.566Z,96.59
2023-08-06T01:30:18.637Z,96.56
2023-08-06T01:32:47.420Z,96.60
2023-08-06T01:35:16.996Z,96.76
2023-08-06T01:37:44.383Z,96.62
2023-08-06T01:40:14.680Z,96.70
2023-08-06T01:42:41.536Z,96.68
2023-08-06T01:45:09.313Z,96.59
2023-08-06T01:47:36.203Z,96.63
2023-08-06T01:50:03.495Z,96.70
2023-08-06T01:52:30.152Z,96.56
2023-08-06T01:54:56.921Z,96.60
2023-08-06T01:57:23.707Z,96.75
2023-08-06T01:59:50.344Z,96.74
2023-08-06T02:02:17.301Z,96.93
2023-08-06T02:04:44.175Z,96.83
2023-08-06T02:07:11.108Z,96.68
2023-08-06T02:09:38.293Z,96.75
2023-08-06T02:12:05.420Z,96.68
2023-08-06T02:14:32.116Z,96.78
2023-08-06T02:17:01.120Z,96.82
2023-08-06T02:19:30.567Z,96.86
2023-08-06T02:21:57.636Z,96.81
2023-08-06T02:24:24.282Z,97.04
2023-08-06T02:26:52.433Z,96.84
2023-08-06T02:29:19.517Z,96.92
2023-08-06T02:31:46.192Z,97.01
2023-08-06T02:34:12.870Z,97.09
2023-08-06T02:36:39.545Z,97.19
2023-08-06T02:39:06.171Z,97.05
2023-08-06T02:41:33.281Z,96.89
2023-08-06T02:43:59.893Z,96.92
2023-08-06T02:46:26.488Z,97.10
2023-08-06T02:48:53.202Z,97.07
2023-08-06T02:51:19.789Z,97.11
2023-08-06T02:53:46.543Z,97.11
2023-08-06T02:56:13.285Z,97.32
2023-08-06T02:58:39.897Z,97.47
2023-08-06T03:01:08.378Z,97.49
2023-08-06T03:03:35.252Z,97.71
2023-08-06T03:06:02.397Z,97.80
2023-08-06T03:08:29.534Z,97.73
2023-08-06T03:10:56.344Z,97.81
2023-08-06T03:13:23.179Z,97.80
2023-08-06T03:15:55.028Z,97.96
2023-08-06T03:18:22.324Z,97.94
2023-08-06T03:20:49.286Z,98.10
2023-08-06T03:23:16.112Z,98.06
2023-08-06T03:25:42.792Z,97.84
2023-08-06T03:28:10.648Z,97.97
2023-08-06T03:30:37.454Z,97.96
2023-08-06T03:33:04.306Z,98.13
2023-08-06T03:35:31.291Z,98.00
2023-08-06T03:37:57.890Z,97.96
2023-08-06T03:40:24.525Z,97.81
2023-08-06T03:42:51.255Z,97.86
2023-08-06T03:45:17.852Z,97.81
2023-08-06T03:47:44.505Z,97.81
2023-08-06T03:50:11.293Z,97.97
2023-08-06T03:52:37.928Z,98.18
2023-08-06T03:55:04.883Z,98.23
2023-08-06T03:57:32.225Z,98.39
2023-08-06T03:59:58.791Z,98.39
2023-08-06T04:02:25.476Z,98.42
2023-08-06T04:04:54.543Z,98.61
2023-08-06T04:07:21.214Z,98.72
2023-08-06T04:09:59.829Z,98.70
2023-08-06T04:12:27.061Z,98.69
2023-08-06T04:14:54.602Z,98.78
2023-08-06T04:17:21.998Z,98.88
2023-08-06T04:19:54.221Z,98.83
2023-08-06T04:22:21.887Z,98.81
2023-08-06T04:24:48.947Z,98.84
2023-08-06T04:27:16.601Z,99.16
2023-08-06T04:29:43.824Z,99.09
2023-08-06T04:32:11.656Z,99.08
2023-08-06T04:34:38.757Z,99.20
2023-08-06T04:37:06.152Z,99.09
2023-08-06T04:39:33.008Z,99.08
2023-08-06T04:41:59.672Z,99.09
2023-08-06T04:44:26.384Z,99.06
2023-08-06T04:46:53.091Z,99.12
2023-08-06T04:49:21.875Z,99.00
2023-08-06T04:51:48.565Z,99.09
2023-08-06T04:54:15.214Z,99.26
2023-08-06T04:56:42.594Z,99.43
2023-08-06T04:59:09.491Z,99.35
2023-08-06T05:01:36.145Z,99.22
2023-08-06T05:04:02.947Z,99.21
2023-08-06T05:06:29.723Z,99.35
2023-08-06T05:08:56.358Z,99.36
2023-08-06T05:11:23.052Z,99.36
2023-08-06T05:13:49.682Z,99.31
2023-08-06T05:16:16.322Z,99.25
2023-08-06T05:18:43.249Z,98.95
2023-08-06T05:21:09.853Z,98.96
2023-08-06T05:23:36.445Z,98.78
2023-08-06T05:26:03.456Z,98.69
2023-08-06T05:28:30.138Z,98.66
2023-08-06T05:30:56.753Z,98.74
2023-08-06T05:33:23.356Z,98.89
2023-08-06T05:35:51.009Z,98.63
2023-08-06T05:38:18.669Z,98.50
2023-08-06T05:40:45.564Z,98.70
2023-08-06T05:43:12.127Z,98.88
2023-08-06T05:45:38.782Z,98.78
2023-08-06T05:48:05.654Z,98.68
2023-08-06T05:50:32.279Z,98.07
2023-08-06T05:53:01.441Z,97.94
2023-08-06T05:55:28.871Z,97.90
2023-08-06T05:57:55.988Z,97.72
2023-08-06T06:00:22.901Z,97.45
2023-08-06T06:02:49.746Z,97.57
2023-08-06T06:05:16.555Z,97.15
2023-08-06T06:07:43.410Z,97.10
2023-08-06T06:10:10.433Z,97.03
2023-08-06T06:12:37.059Z,96.86
2023-08-06T06:15:04.668Z,96.87
2023-08-06T06:17:31.403Z,96.27
2023-08-06T06:19:58.124Z,95.68
2023-08-06T06:22:24.889Z,95.80
2023-08-06T06:24:51.501Z,96.17
2023-08-06T06:27:18.222Z,96.64
2023-08-06T06:29:44.971Z,96.86
2023-08-06T06:32:11.593Z,96.67
2023-08-06T06:34:38.371Z,96.73
2023-08-06T06:37:05.397Z,95.63
2023-08-06T06:39:32.332Z,94.97
2023-08-06T06:41:58.966Z,94.45
2023-08-06T06:44:25.686Z,94.63
2023-08-06T06:46:52.283Z,93.91
2023-08-06T06:49:19.026Z,93.99
2023-08-06T06:51:45.708Z,94.65
2023-08-06T06:54:12.801Z,94.06
2023-08-06T06:56:39.617Z,93.52
2023-08-06T06:59:06.201Z,93.33
2023-08-06T07:01:32.973Z,93.67
2023-08-06T07:03:59.821Z,94.65
2023-08-06T07:06:27.106Z,95.10
2023-08-06T07:08:53.671Z,95.01
2023-08-06T07:11:20.249Z,94.26
2023-08-06T07:13:46.855Z,94.40
2023-08-06T07:16:13.696Z,94.25
2023-08-06T07:18:40.473Z,94.29
2023-08-06T07:21:07.136Z,94.36
2023-08-06T07:23:33.963Z,94.20
2023-08-06T07:26:00.636Z,94.39
2023-08-06T07:28:27.365Z,94.61
2023-08-06T07:30:54.042Z,94.76
2023-08-06T07:33:20.781Z,94.96
2023-08-06T07:35:47.483Z,94.77
2023-08-06T07:38:14.142Z,94.66
2023-08-06T07:40:41.560Z,94.72
2023-08-06T07:43:08.376Z,94.99
2023-08-06T07:45:38.668Z,94.71
2023-08-06T07:48:05.957Z,94.79
2023-08-06T07:50:32.998Z,94.73
2023-08-06T07:52:59.738Z,94.14
2023-08-06T07:55:26.627Z,93.62
2023-08-06T07:57:53.508Z,93.21
2023-08-06T08:00:20.402Z,92.29
2023-08-06T08:02:48.534Z,92.53
2023-08-06T08:05:15.583Z,92.89
2023-08-06T08:07:42.181Z,93.03
2023-08-06T08:10:09.046Z,92.94
2023-08-06T08:12:35.910Z,92.93
2023-08-06T08:15:02.522Z,92.94
2023-08-06T08:17:29.283Z,92.93
2023-08-06T08:19:55.938Z,93.07
2023-08-06T08:22:22.504Z,92.68
2023-08-06T08:24:49.169Z,92.48
2023-08-06T08:27:15.903Z,92.59
2023-08-06T08:29:42.601Z,92.02
2023-08-06T08:32:09.222Z,92.04
2023-08-06T08:34:35.906Z,92.58
2023-08-06T08:37:02.502Z,93.08
2023-08-06T08:39:29.243Z,92.55
2023-08-06T08:41:56.025Z,92.25
2023-08-06T08:44:22.960Z,92.23
2023-08-06T08:46:50.231Z,92.17
2023-08-06T08:49:17.788Z,92.05
2023-08-06T08:51:46.035Z,92.48
2023-08-06T08:54:14.497Z,92.30
2023-08-06T08:56:41.218Z,92.24
2023-08-06T08:59:07.896Z,91.97
2023-08-06T09:01:36.055Z,92.28
2023-08-06T09:04:04.022Z,91.76
2023-08-06T09:06:33.516Z,91.74
2023-08-06T09:09:07.221Z,90.90
2023-08-06T09:11:41.794Z,91.38
2023-08-06T09:14:09.452Z,90.86
2023-08-06T09:16:37.026Z,90.61
2023-08-06T09:19:13.830Z,90.74
2023-08-06T09:21:41.471Z,90.73
2023-08-06T09:24:13.035Z,90.88
2023-08-06T09:26:41.381Z,90.50
2023-08-06T09:29:09.699Z,90.05
2023-08-06T09:31:42.605Z,90.14
2023-08-06T09:34:17.506Z,90.52
2023-08-06T09:36:47.723Z,90.52
2023-08-06T09:39:19.117Z,89.22
2023-08-06T09:41:46.636Z,90.43
2023-08-06T09:44:24.422Z,90.01
2023-08-06T09:47:04.788Z,90.32
2023-08-06T09:49:34.183Z,90.32
2023-08-06T09:52:01.368Z,90.14
2023-08-06T09:54:28.681Z,89.84
2023-08-06T09:56:56.274Z,89.47
2023-08-06T09:59:26.567Z,88.47
2023-08-06T10:01:55.563Z,88.85
2023-08-06T10:04:25.269Z,89.22
2023-08-06T10:06:53.793Z,87.40
2023-08-06T10:09:21.501Z,87.67
2023-08-06T10:11:55.033Z,88.30
2023-08-06T10:14:32.786Z,87.24
2023-08-06T10:17:00.736Z,87.19
2023-08-06T10:19:28.512Z,87.89
2023-08-06T10:22:15.339Z,87.72
2023-08-06T10:25:06.760Z,87.38
2023-08-06T10:27:41.306Z,87.98
2023-08-06T10:30:27.137Z,87.89
2023-08-06T10:32:55.691Z,87.72
2023-08-06T10:35:52.342Z,88.70
2023-08-06T10:38:24.139Z,87.76
2023-08-06T10:40:53.601Z,87.93
2023-08-06T10:43:30.224Z,87.55
2023-08-06T10:45:58.267Z,84.78
2023-08-06T10:48:32.603Z,86.13
2023-08-06T10:51:01.427Z,86.31
2023-08-06T10:53:30.438Z,87.37
2023-08-06T10:55:59.359Z,87.97
2023-08-06T10:58:25.982Z,88.86
2023-08-06T11:00:53.064Z,88.54
2023-08-06T11:03:19.915Z,87.47
2023-08-06T11:05:50.415Z,87.90
2023-08-06T11:08:30.876Z,88.87
2023-08-06T11:11:12.869Z,88.37
2023-08-06T11:13:51.084Z,88.75
2023-08-06T11:16:24.432Z,89.01
2023-08-06T11:18:51.808Z,89.04
2023-08-06T11:21:22.212Z,89.57
2023-08-06T11:23:49.360Z,89.64
2023-08-06T11:26:24.204Z,89.37
2023-08-06T11:28:51.194Z,89.84
2023-08-06T11:31:24.864Z,88.67
2023-08-06T11:33:53.832Z,88.82
2023-08-06T11:36:34.604Z,88.69
2023-08-06T11:39:02.043Z,88.89
2023-08-06T11:41:31.824Z,88.61
2023-08-06T11:43:59.727Z,89.02
2023-08-06T11:46:27.137Z,88.49
2023-08-06T11:48:55.642Z,88.10
2023-08-06T11:51:27.222Z,87.97
2023-08-06T11:54:00.292Z,88.05
2023-08-06T11:56:28.699Z,88.90
2023-08-06T11:58:56.120Z,89.12
2023-08-06T12:01:23.031Z,88.54
2023-08-06T12:03:49.710Z,89.08
2023-08-06T12:06:16.491Z,89.90
2023-08-06T12:08:43.601Z,90.14
2023-08-06T12:11:10.243Z,89.63
2023-08-06T12:13:36.965Z,89.91
2023-08-06T12:16:03.697Z,89.99
2023-08-06T12:18:30.544Z,88.38
2023-08-06T12:20:57.203Z,88.67
2023-08-06T12:23:23.885Z,88.54
2023-08-06T12:25:50.760Z,88.56
2023-08-06T12:28:17.484Z,88.98
2023-08-06T12:30:45.594Z,88.07
2023-08-06T12:33:12.261Z,87.68
2023-08-06T12:35:39.470Z,88.29
2023-08-06T12:38:06.196Z,88.53
2023-08-06T12:40:38.030Z,88.05
2023-08-06T12:43:06.165Z,88.00
2023-08-06T12:45:32.955Z,88.77
2023-08-06T12:47:59.777Z,88.68
2023-08-06T12:50:26.468Z,88.25
2023-08-06T12:52:53.143Z,88.47
2023-08-06T12:55:20.054Z,88.42
2023-08-06T12:57:56.869Z,88.27
2023-08-06T13:00:26.728Z,88.37
2023-08-06T13:02:53.444Z,88.76
2023-08-06T13:05:20.888Z,88.92
2023-08-06T13:07:47.655Z,88.78
2023-08-06T13:10:14.405Z,89.87
2023-08-06T13:12:40.993Z,89.60
2023-08-06T13:15:08.450Z,89.78
2023-08-06T13:17:35.208Z,89.51
2023-08-06T13:20:02.073Z,89.68
2023-08-06T13:22:28.844Z,89.78
2023-08-06T13:24:55.492Z,89.35
2023-08-06T13:27:22.062Z,89.46
2023-08-06T13:29:48.652Z,90.11
2023-08-06T13:32:15.630Z,90.41
2023-08-06T13:34:42.324Z,89.79
2023-08-06T13:37:09.217Z,89.93
2023-08-06T13:39:35.862Z,89.63
2023-08-06T13:42:02.529Z,89.55
2023-08-06T13:44:30.010Z,89.92
2023-08-06T13:46:56.989Z,89.38
2023-08-06T13:49:23.875Z,89.54
2023-08-06T13:51:50.421Z,90.11
2023-08-06T13:54:17.881Z,89.75
2023-08-06T13:56:44.585Z,89.95
2023-08-06T13:59:14.525Z,90.33
2023-08-06T14:01:50.234Z,90.57
2023-08-06T14:04:19.106Z,90.68
2023-08-06T14:06:45.840Z,90.93
2023-08-06T14:09:15.142Z,90.87
2023-08-06T14:11:41.985Z,90.72
2023-08-06T14:14:08.945Z,90.93
2023-08-06T14:16:35.751Z,90.92
2023-08-06T14:19:02.357Z,90.52
2023-08-06T14:21:28.950Z,91.09
2023-08-06T14:23:56.138Z,91.22
2023-08-06T14:26:22.738Z,91.18
2023-08-06T14:28:49.425Z,91.31
2023-08-06T14:31:16.094Z,91.23
2023-08-06T14:33:42.835Z,91.07
2023-08-06T14:36:09.410Z,90.96
2023-08-06T14:38:46.263Z,90.58
2023-08-06T14:41:16.960Z,91.21
2023-08-06T14:43:43.559Z,91.29
2023-08-06T14:46:10.151Z,91.27
2023-08-06T14:48:36.775Z,90.86
2023-08-06T14:51:03.656Z,91.40
2023-08-06T14:53:30.278Z,91.17
2023-08-06T14:55:56.904Z,91.58
2023-08-06T14:58:23.481Z,91.67
2023-08-06T15:00:50.153Z,91.96
2023-08-06T15:03:17.455Z,92.01
2023-08-06T15:05:45.987Z,92.38
2023-08-06T15:08:12.651Z,92.37
2023-08-06T15:10:39.291Z,92.50
2023-08-06T15:13:05.988Z,92.53
2023-08-06T15:15:32.564Z,92.46
2023-08-06T15:17:59.722Z,92.52
2023-08-06T15:20:26.452Z,92.39
2023-08-06T15:22:53.262Z,92.43
2023-08-06T15:25:20.121Z,92.04
2023-08-06T15:27:48.083Z,91.71
2023-08-06T15:30:14.789Z,91.45
2023-08-06T15:32:45.582Z,91.67
2023-08-06T15:35:12.350Z,91.66
2023-08-06T15:37:38.985Z,91.61
2023-08-06T15:40:07.256Z,91.68
2023-08-06T15:42:34.390Z,91.58
2023-08-06T15:45:01.336Z,91.67
2023-08-06T15:47:28.047Z,91.85
2023-08-06T15:49:54.669Z,91.14
2023-08-06T15:52:21.429Z,91.42
2023-08-06T15:54:48.093Z,91.15
2023-08-06T15:57:16.818Z,91.37
2023-08-06T15:59:43.517Z,91.64
2023-08-06T16:02:10.746Z,91.06
2023-08-06T16:04:37.556Z,90.93
2023-08-06T16:07:04.538Z,91.13
2023-08-06T16:09:31.219Z,91.44
2023-08-06T16:11:57.927Z,91.52
2023-08-06T16:14:24.590Z,91.65
2023-08-06T16:16:51.548Z,92.12
2023-08-06T16:19:18.239Z,92.14
2023-08-06T16:21:44.865Z,91.88
2023-08-06T16:24:11.514Z,92.13
2023-08-06T16:26:38.183Z,92.37
2023-08-06T16:29:05.280Z,92.51
2023-08-06T16:31:32.210Z,92.19
2023-08-06T16:33:58.910Z,92.22
2023-08-06T16:36:26.316Z,91.36
2023-08-06T16:38:53.194Z,91.53
2023-08-06T16:41:19.812Z,91.84
2023-08-06T16:43:46.592Z,91.67
2023-08-06T16:46:13.387Z,91.12
2023-08-06T16:48:40.174Z,90.65
2023-08-06T16:51:06.881Z,90.97
2023-08-06T16:53:33.505Z,91.83
2023-08-06T16:56:00.228Z,92.11
2023-08-06T16:58:27.584Z,91.75
2023-08-06T17:00:56.016Z,91.72
2023-08-06T17:03:23.165Z,91.88
2023-08-06T17:05:49.957Z,91.95
2023-08-06T17:08:16.845Z,91.99
2023-08-06T17:10:43.592Z,92.31
2023-08-06T17:13:20.165Z,93.24
2023-08-06T17:15:49.005Z,93.35
2023-08-06T17:18:18.072Z,93.13
2023-08-06T17:20:46.067Z,93.42
2023-08-06T17:23:12.741Z,93.27
2023-08-06T17:25:43.966Z,93.15
2023-08-06T17:28:10.785Z,94.09
2023-08-06T17:30:39.418Z,94.49
2023-08-06T17:33:06.004Z,94.37
2023-08-06T17:35:34.371Z,94.57
2023-08-06T17:38:01.838Z,94.73
2023-08-06T17:40:29.718Z,95.07
2023-08-06T17:42:56.474Z,94.85
2023-08-06T17:45:24.248Z,95.26
2023-08-06T17:47:52.119Z,95.36
2023-08-06T17:50:18.887Z,95.20
2023-08-06T17:52:45.555Z,95.55
2023-08-06T17:55:12.244Z,95.55
2023-08-06T17:57:38.902Z,95.26
2023-08-06T18:00:06.928Z,94.77
2023-08-06T18:02:33.958Z,94.24
2023-08-06T18:05:00.851Z,94.90
2023-08-06T18:07:27.532Z,94.58
2023-08-06T18:09:54.246Z,94.41
2023-08-06T18:12:21.030Z,95.30
2023-08-06T18:14:47.668Z,95.36
2023-08-06T18:17:15.339Z,95.38
2023-08-06T18:19:41.949Z,95.73
2023-08-06T18:22:08.571Z,95.46
2023-08-06T18:24:35.192Z,95.84
2023-08-06T18:27:03.007Z,96.29
2023-08-06T18:29:29.957Z,96.33
2023-08-06T18:31:56.630Z,96.68
2023-08-06T18:34:23.673Z,96.70
2023-08-06T18:36:50.469Z,96.69
2023-08-06T18:39:17.117Z,96.81
2023-08-06T18:41:44.592Z,96.65
2023-08-06T18:44:11.292Z,96.75
2023-08-06T18:46:38.244Z,96.92
2023-08-06T18:49:05.759Z,96.92
2023-08-06T18:51:32.436Z,97.16
2023-08-06T18:53:59.135Z,97.12
2023-08-06T18:56:25.851Z,97.60
2023-08-06T18:58:52.469Z,97.46
2023-08-06T19:01:19.224Z,97.62
2023-08-06T19:03:46.055Z,97.70
2023-08-06T19:06:12.822Z,97.69
2023-08-06T19:08:39.652Z,97.66
2023-08-06T19:11:06.365Z,97.93
2023-08-06T19:13:34.266Z,98.14
2023-08-06T19:16:00.995Z,97.80
2023-08-06T19:18:27.735Z,98.00
2023-08-06T19:20:58.024Z,97.74
2023-08-06T19:23:28.188Z,97.70
2023-08-06T19:25:55.365Z,97.74
2023-08-06T19:28:22.108Z,97.52
2023-08-06T19:30:49.643Z,97.67
2023-08-06T19:33:19.324Z,97.91
2023-08-06T19:35:53.674Z,97.97
2023-08-06T19:38:21.943Z,98.33
2023-08-06T19:40:49.060Z,98.25
2023-08-06T19:43:16.820Z,98.11
2023-08-06T19:45:50.528Z,98.12
2023-08-06T19:48:17.717Z,98.29
2023-08-06T19:50:52.504Z,98.27
2023-08-06T19:53:19.273Z,97.23
2023-08-06T19:55:46.542Z,96.91
2023-08-06T19:58:13.190Z,96.89
2023-08-06T20:00:40.268Z,96.82
2023-08-06T20:03:07.298Z,96.51
2023-08-06T20:05:34.028Z,96.50
2023-08-06T20:08:00.646Z,95.90
2023-08-06T20:10:27.272Z,96.14
2023-08-06T20:12:53.922Z,96.48
2023-08-06T20:15:20.497Z,96.25
2023-08-06T20:17:47.208Z,96.20
2023-08-06T20:20:13.857Z,96.43
2023-08-06T20:22:40.580Z,96.78
2023-08-06T20:25:07.501Z,96.60
2023-08-06T20:27:34.099Z,97.03
2023-08-06T20:30:00.732Z,97.35
2023-08-06T20:32:28.519Z,97.34
2023-08-06T20:34:55.173Z,97.64
2023-08-06T20:37:21.948Z,97.54
2023-08-06T20:39:48.718Z,97.67
2023-08-06T20:42:15.375Z,97.62
2023-08-06T20:44:41.940Z,97.66
2023-08-06T20:47:08.933Z,97.57
2023-08-06T20:49:35.498Z,97.53
2023-08-06T20:52:03.726Z,97.59
2023-08-06T20:54:31.538Z,97.60
2023-08-06T20:56:58.433Z,97.81
2023-08-06T20:59:25.093Z,97.50
2023-08-06T21:01:51.753Z,97.25
2023-08-06T21:04:18.500Z,96.79
2023-08-06T21:06:45.060Z,96.09
2023-08-06T21:09:11.652Z,95.90
2023-08-06T21:11:38.301Z,95.76
2023-08-06T21:14:04.886Z,95.83
2023-08-06T21:16:31.724Z,95.76
2023-08-06T21:18:58.530Z,95.89
2023-08-06T21:21:25.343Z,96.20
2023-08-06T21:23:52.033Z,96.33
2023-08-06T21:26:18.983Z,96.27
2023-08-06T21:28:45.696Z,96.49
2023-08-06T21:31:13.440Z,96.49
2023-08-06T21:33:42.228Z,95.28
2023-08-06T21:36:10.417Z,95.79
2023-08-06T21:38:41.961Z,95.48
2023-08-06T21:41:12.992Z,92.92
2023-08-06T21:43:49.752Z,94.22
2023-08-06T21:46:19.139Z,92.58
2023-08-06T21:48:47.983Z,93.42
2023-08-06T21:51:19.540Z,93.34
2023-08-06T21:53:47.385Z,93.56
2023-08-06T21:56:14.997Z,93.84
2023-08-06T21:58:46.930Z,94.68
2023-08-06T22:01:14.862Z,95.58
2023-08-06T22:03:42.716Z,95.78
2023-08-06T22:06:11.365Z,95.57
2023-08-06T22:08:39.341Z,94.72
2023-08-06T22:11:06.805Z,95.54
2023-08-06T22:13:33.538Z,95.96
2023-08-06T22:16:00.213Z,96.52
2023-08-06T22:18:26.930Z,96.55
2023-08-06T22:20:57.644Z,96.57
2023-08-06T22:23:24.394Z,96.79
2023-08-06T22:25:52.923Z,94.91
2023-08-06T22:28:22.030Z,95.29
2023-08-06T22:30:48.916Z,94.52
2023-08-06T22:33:15.745Z,95.15
2023-08-06T22:35:42.502Z,95.07
2023-08-06T22:38:09.132Z,94.40
2023-08-06T22:40:36.488Z,94.97
2023-08-06T22:43:03.120Z,95.81
2023-08-06T22:45:29.833Z,96.42
2023-08-06T22:47:56.644Z,96.73
2023-08-06T22:50:23.342Z,96.52
2023-08-06T22:52:49.942Z,96.82
2023-08-06T22:55:37.998Z,96.94
2023-08-06T22:58:03.540Z,97.21
2023-08-06T23:00:30.350Z,97.26
2023-08-06T23:03:08.997Z,95.52
2023-08-06T23:05:37.112Z,95.25
2023-08-06T23:08:03.909Z,95.75
2023-08-06T23:10:31.169Z,94.57
2023-08-06T23:12:58.369Z,94.44
2023-08-06T23:15:25.225Z,95.02
2023-08-06T23:17:51.942Z,94.83
2023-08-06T23:20:18.660Z,93.94
2023-08-06T23:22:45.395Z,93.94
2023-08-06T23:25:12.039Z,94.82
2023-08-06T23:27:38.615Z,93.44
2023-08-06T23:30:06.516Z,95.03
2023-08-06T23:32:33.422Z,94.15
2023-08-06T23:35:00.133Z,93.85
2023-08-06T23:37:26.910Z,93.48
2023-08-06T23:39:56.168Z,93.48
2023-08-06T23:42:24.120Z,93.45
2023-08-06T23:44:51.755Z,93.69
2023-08-06T23:47:18.525Z,93.79
2023-08-06T23:49:45.610Z,94.43
2023-08-06T23:52:12.252Z,94.24
2023-08-06T23:54:40.880Z,94.99
2023-08-06T23:57:07.626Z,95.56
2023-08-06T23:59:34.268Z,95.77
